sensor_id;sensor_type;location;lat;lon;timestamp;pressure;altitude;pressure_sealevel;temperature;humidity
84639;BME280;74869;51.924;5.712;2024-02-21T00:00:07;102217.50;;;8.48;89.86
84639;BME280;74869;51.924;5.712;2024-02-21T00:02:32;102185.56;;;8.23;89.65
84639;BME280;74869;51.924;5.712;2024-02-21T00:04:58;102171.59;;;8.21;89.53
84639;BME280;74869;51.924;5.712;2024-02-21T00:07:23;102214.25;;;8.45;90.38
84639;BME280;74869;51.924;5.712;2024-02-21T00:09:48;102226.84;;;8.57;89.95
84639;BME280;74869;51.924;5.712;2024-02-21T00:12:14;102207.97;;;8.52;89.47
84639;BME280;74869;51.924;5.712;2024-02-21T00:14:40;102193.19;;;8.37;89.91
84639;BME280;74869;51.924;5.712;2024-02-21T00:17:06;102212.41;;;8.58;89.57
84639;BME280;74869;51.924;5.712;2024-02-21T00:19:31;102206.00;;;8.47;90.17
84639;BME280;74869;51.924;5.712;2024-02-21T00:21:56;102189.22;;;8.40;89.91
84639;BME280;74869;51.924;5.712;2024-02-21T00:24:22;102210.53;;;8.58;89.55
84639;BME280;74869;51.924;5.712;2024-02-21T00:26:47;102215.88;;;8.58;90.41
84639;BME280;74869;51.924;5.712;2024-02-21T00:29:12;102159.97;;;8.27;89.46
84639;BME280;74869;51.924;5.712;2024-02-21T00:31:38;102207.28;;;8.56;89.57
84639;BME280;74869;51.924;5.712;2024-02-21T00:34:03;102142.75;;;8.23;89.53
84639;BME280;74869;51.924;5.712;2024-02-21T00:36:28;102185.75;;;8.51;89.61
84639;BME280;74869;51.924;5.712;2024-02-21T00:38:54;102183.31;;;8.61;89.84
84639;BME280;74869;51.924;5.712;2024-02-21T00:41:19;102175.16;;;8.56;89.88
84639;BME280;74869;51.924;5.712;2024-02-21T00:43:45;102176.78;;;8.57;89.81
84639;BME280;74869;51.924;5.712;2024-02-21T00:46:10;102152.13;;;8.43;90.34
84639;BME280;74869;51.924;5.712;2024-02-21T00:48:35;102168.28;;;8.60;90.28
84639;BME280;74869;51.924;5.712;2024-02-21T00:51:01;102181.06;;;8.58;90.15
84639;BME280;74869;51.924;5.712;2024-02-21T00:53:26;102166.09;;;8.57;89.61
84639;BME280;74869;51.924;5.712;2024-02-21T00:55:52;102174.22;;;8.62;90.34
84639;BME280;74869;51.924;5.712;2024-02-21T00:58:17;102165.16;;;8.63;89.96
84639;BME280;74869;51.924;5.712;2024-02-21T01:00:42;102137.00;;;8.49;90.06
84639;BME280;74869;51.924;5.712;2024-02-21T01:03:08;102130.00;;;8.48;89.75
84639;BME280;74869;51.924;5.712;2024-02-21T01:05:33;102159.09;;;8.56;89.88
84639;BME280;74869;51.924;5.712;2024-02-21T01:07:58;102152.13;;;8.55;89.87
84639;BME280;74869;51.924;5.712;2024-02-21T01:10:24;102134.91;;;8.51;90.05
84639;BME280;74869;51.924;5.712;2024-02-21T01:12:49;102154.44;;;8.63;90.15
84639;BME280;74869;51.924;5.712;2024-02-21T01:15:15;102158.16;;;8.62;89.95
84639;BME280;74869;51.924;5.712;2024-02-21T01:17:40;102153.75;;;8.56;89.84
84639;BME280;74869;51.924;5.712;2024-02-21T01:20:06;102157.34;;;8.62;90.08
84639;BME280;74869;51.924;5.712;2024-02-21T01:22:32;102146.75;;;8.55;89.54
84639;BME280;74869;51.924;5.712;2024-02-21T01:24:58;102122.91;;;8.42;90.21
84639;BME280;74869;51.924;5.712;2024-02-21T01:27:23;102124.97;;;8.52;89.88
84639;BME280;74869;51.924;5.712;2024-02-21T01:29:48;102132.56;;;8.43;89.88
84639;BME280;74869;51.924;5.712;2024-02-21T01:32:15;102151.63;;;8.58;89.93
84639;BME280;74869;51.924;5.712;2024-02-21T01:34:41;102154.69;;;8.50;90.22
84639;BME280;74869;51.924;5.712;2024-02-21T01:37:06;102146.97;;;8.54;90.23
84639;BME280;74869;51.924;5.712;2024-02-21T01:39:33;102144.91;;;8.44;89.62
84639;BME280;74869;51.924;5.712;2024-02-21T01:41:58;102159.09;;;8.56;90.00
84639;BME280;74869;51.924;5.712;2024-02-21T01:44:24;102132.09;;;8.46;90.04
84639;BME280;74869;51.924;5.712;2024-02-21T01:46:49;102124.44;;;8.38;90.50
84639;BME280;74869;51.924;5.712;2024-02-21T01:49:16;102138.94;;;8.54;90.03
84639;BME280;74869;51.924;5.712;2024-02-21T01:51:42;102123.25;;;8.34;89.95
84639;BME280;74869;51.924;5.712;2024-02-21T01:54:08;102115.91;;;8.41;90.53
84639;BME280;74869;51.924;5.712;2024-02-21T01:56:34;102148.41;;;8.56;90.11
84639;BME280;74869;51.924;5.712;2024-02-21T01:59:00;102105.75;;;8.20;89.76
84639;BME280;74869;51.924;5.712;2024-02-21T02:01:26;102145.13;;;8.54;89.64
84639;BME280;74869;51.924;5.712;2024-02-21T02:03:51;102104.38;;;8.29;90.46
84639;BME280;74869;51.924;5.712;2024-02-21T02:06:17;102125.34;;;8.55;90.11
84639;BME280;74869;51.924;5.712;2024-02-21T02:08:43;102124.66;;;8.48;89.81
84639;BME280;74869;51.924;5.712;2024-02-21T02:11:09;102116.25;;;8.33;90.01
84639;BME280;74869;51.924;5.712;2024-02-21T02:13:34;102094.94;;;8.26;89.99
84639;BME280;74869;51.924;5.712;2024-02-21T02:16:00;102098.81;;;8.30;90.19
84639;BME280;74869;51.924;5.712;2024-02-21T02:18:25;102045.53;;;8.05;90.29
84639;BME280;74869;51.924;5.712;2024-02-21T02:20:51;102119.06;;;8.50;90.08
84639;BME280;74869;51.924;5.712;2024-02-21T02:23:31;102087.16;;;8.25;90.45
84639;BME280;74869;51.924;5.712;2024-02-21T02:25:56;102116.50;;;8.43;90.38
84639;BME280;74869;51.924;5.712;2024-02-21T02:28:22;102132.69;;;8.48;89.79
84639;BME280;74869;51.924;5.712;2024-02-21T02:30:48;102096.97;;;8.31;90.15
84639;BME280;74869;51.924;5.712;2024-02-21T02:33:14;102059.72;;;8.18;90.25
84639;BME280;74869;51.924;5.712;2024-02-21T02:35:40;102090.47;;;8.38;90.09
84639;BME280;74869;51.924;5.712;2024-02-21T02:38:05;102066.91;;;8.29;90.03
84639;BME280;74869;51.924;5.712;2024-02-21T02:40:34;102076.94;;;8.45;90.27
84639;BME280;74869;51.924;5.712;2024-02-21T02:43:00;102079.03;;;8.43;89.95
84639;BME280;74869;51.924;5.712;2024-02-21T02:45:25;102067.16;;;8.39;89.45
84639;BME280;74869;51.924;5.712;2024-02-21T02:47:54;102066.00;;;8.35;90.41
84639;BME280;74869;51.924;5.712;2024-02-21T02:50:19;102064.38;;;8.34;90.55
84639;BME280;74869;51.924;5.712;2024-02-21T02:52:45;102084.41;;;8.43;89.80
84639;BME280;74869;51.924;5.712;2024-02-21T02:55:10;102090.56;;;8.43;89.95
84639;BME280;74869;51.924;5.712;2024-02-21T02:57:35;102080.09;;;8.42;90.28
84639;BME280;74869;51.924;5.712;2024-02-21T03:00:01;102076.38;;;8.43;90.25
84639;BME280;74869;51.924;5.712;2024-02-21T03:02:26;102071.25;;;8.41;90.10
84639;BME280;74869;51.924;5.712;2024-02-21T03:04:52;102068.69;;;8.35;90.13
84639;BME280;74869;51.924;5.712;2024-02-21T03:07:19;102035.75;;;8.23;89.85
84639;BME280;74869;51.924;5.712;2024-02-21T03:09:45;102067.75;;;8.41;89.71
84639;BME280;74869;51.924;5.712;2024-02-21T03:12:10;102052.38;;;8.25;90.16
84639;BME280;74869;51.924;5.712;2024-02-21T03:14:35;102043.88;;;8.28;89.99
84639;BME280;74869;51.924;5.712;2024-02-21T03:17:02;102052.72;;;8.40;90.09
84639;BME280;74869;51.924;5.712;2024-02-21T03:19:28;102042.72;;;8.24;89.84
84639;BME280;74869;51.924;5.712;2024-02-21T03:21:54;102054.38;;;8.41;90.31
84639;BME280;74869;51.924;5.712;2024-02-21T03:24:19;102032.03;;;8.24;90.02
84639;BME280;74869;51.924;5.712;2024-02-21T03:26:45;102058.09;;;8.40;90.06
84639;BME280;74869;51.924;5.712;2024-02-21T03:29:15;102012.50;;;8.12;90.11
84639;BME280;74869;51.924;5.712;2024-02-21T03:31:41;102046.56;;;8.39;90.12
84639;BME280;74869;51.924;5.712;2024-02-21T03:34:06;102046.69;;;8.33;90.00
84639;BME280;74869;51.924;5.712;2024-02-21T03:36:32;102044.97;;;8.38;90.09
84639;BME280;74869;51.924;5.712;2024-02-21T03:38:57;102035.03;;;8.39;89.85
84639;BME280;74869;51.924;5.712;2024-02-21T03:41:22;102032.38;;;8.39;90.45
84639;BME280;74869;51.924;5.712;2024-02-21T03:43:48;102017.72;;;8.30;90.44
84639;BME280;74869;51.924;5.712;2024-02-21T03:46:14;102019.00;;;8.39;89.98
84639;BME280;74869;51.924;5.712;2024-02-21T03:48:40;102024.34;;;8.39;90.23
84639;BME280;74869;51.924;5.712;2024-02-21T03:51:05;102008.06;;;8.29;89.90
84639;BME280;74869;51.924;5.712;2024-02-21T03:53:31;101998.28;;;8.23;90.09
84639;BME280;74869;51.924;5.712;2024-02-21T03:55:56;102007.63;;;8.32;89.58
84639;BME280;74869;51.924;5.712;2024-02-21T03:58:25;102013.63;;;8.39;90.01
84639;BME280;74869;51.924;5.712;2024-02-21T04:00:50;102018.19;;;8.38;90.48
84639;BME280;74869;51.924;5.712;2024-02-21T04:03:17;102021.09;;;8.37;90.24
84639;BME280;74869;51.924;5.712;2024-02-21T04:05:42;101981.66;;;8.21;90.13
84639;BME280;74869;51.924;5.712;2024-02-21T04:08:07;101993.75;;;8.23;90.01
84639;BME280;74869;51.924;5.712;2024-02-21T04:10:33;102010.84;;;8.34;90.39
84639;BME280;74869;51.924;5.712;2024-02-21T04:12:58;102014.94;;;8.36;90.74
84639;BME280;74869;51.924;5.712;2024-02-21T04:15:24;102001.06;;;8.28;89.96
84639;BME280;74869;51.924;5.712;2024-02-21T04:17:49;102000.84;;;8.29;89.82
84639;BME280;74869;51.924;5.712;2024-02-21T04:20:16;102011.44;;;8.36;90.19
84639;BME280;74869;51.924;5.712;2024-02-21T04:22:45;102001.56;;;8.25;90.02
84639;BME280;74869;51.924;5.712;2024-02-21T04:25:11;102010.84;;;8.34;90.17
84639;BME280;74869;51.924;5.712;2024-02-21T04:27:38;101963.03;;;8.14;89.71
84639;BME280;74869;51.924;5.712;2024-02-21T04:30:04;101998.97;;;8.30;90.14
84639;BME280;74869;51.924;5.712;2024-02-21T04:32:29;101966.31;;;8.16;89.74
84639;BME280;74869;51.924;5.712;2024-02-21T04:34:55;101999.34;;;8.33;90.15
84639;BME280;74869;51.924;5.712;2024-02-21T04:37:20;101981.75;;;8.26;90.04
84639;BME280;74869;51.924;5.712;2024-02-21T04:39:46;101987.81;;;8.33;90.39
84639;BME280;74869;51.924;5.712;2024-02-21T04:42:11;101999.34;;;8.33;89.84
84639;BME280;74869;51.924;5.712;2024-02-21T04:44:37;101995.63;;;8.34;89.75
84639;BME280;74869;51.924;5.712;2024-02-21T04:47:03;101970.72;;;8.22;90.65
84639;BME280;74869;51.924;5.712;2024-02-21T04:49:29;101961.53;;;8.18;89.84
84639;BME280;74869;51.924;5.712;2024-02-21T04:51:54;101989.94;;;8.31;89.93
84639;BME280;74869;51.924;5.712;2024-02-21T04:54:19;101973.63;;;8.21;89.79
84639;BME280;74869;51.924;5.712;2024-02-21T04:56:45;101973.88;;;8.31;89.89
84639;BME280;74869;51.924;5.712;2024-02-21T04:59:10;101900.06;;;7.95;89.81
84639;BME280;74869;51.924;5.712;2024-02-21T05:01:36;101933.06;;;8.12;89.90
84639;BME280;74869;51.924;5.712;2024-02-21T05:04:01;101941.41;;;8.16;89.30
84639;BME280;74869;51.924;5.712;2024-02-21T05:06:27;101942.19;;;8.28;89.95
84639;BME280;74869;51.924;5.712;2024-02-21T05:08:53;101930.81;;;8.21;89.82
84639;BME280;74869;51.924;5.712;2024-02-21T05:11:20;101930.81;;;8.21;89.67
84639;BME280;74869;51.924;5.712;2024-02-21T05:13:46;101907.13;;;8.13;89.60
84639;BME280;74869;51.924;5.712;2024-02-21T05:16:11;101938.47;;;8.29;90.22
84639;BME280;74869;51.924;5.712;2024-02-21T05:18:36;101929.69;;;8.17;90.01
84639;BME280;74869;51.924;5.712;2024-02-21T05:21:02;101877.16;;;7.87;89.86
84639;BME280;74869;51.924;5.712;2024-02-21T05:23:27;101921.19;;;8.08;89.65
84639;BME280;74869;51.924;5.712;2024-02-21T05:25:52;101938.16;;;8.25;89.84
84639;BME280;74869;51.924;5.712;2024-02-21T05:28:18;101929.78;;;8.22;90.09
84639;BME280;74869;51.924;5.712;2024-02-21T05:30:43;101921.28;;;8.25;90.17
84639;BME280;74869;51.924;5.712;2024-02-21T05:33:09;101907.78;;;8.20;89.95
84639;BME280;74869;51.924;5.712;2024-02-21T05:35:34;101925.00;;;8.24;89.59
84639;BME280;74869;51.924;5.712;2024-02-21T05:38:00;101927.78;;;8.29;90.29
84639;BME280;74869;51.924;5.712;2024-02-21T05:40:25;101890.28;;;8.12;89.55
84639;BME280;74869;51.924;5.712;2024-02-21T05:42:51;101924.28;;;8.28;89.68
84639;BME280;74869;51.924;5.712;2024-02-21T05:45:17;101901.25;;;8.27;89.75
84639;BME280;74869;51.924;5.712;2024-02-21T05:47:43;101891.28;;;8.23;89.45
84639;BME280;74869;51.924;5.712;2024-02-21T05:50:09;101830.47;;;7.78;90.08
84639;BME280;74869;51.924;5.712;2024-02-21T05:52:35;101886.16;;;8.21;89.79
84639;BME280;74869;51.924;5.712;2024-02-21T05:55:00;101871.28;;;8.14;89.94
84639;BME280;74869;51.924;5.712;2024-02-21T05:57:26;101876.28;;;8.22;89.85
84639;BME280;74869;51.924;5.712;2024-02-21T05:59:51;101866.69;;;8.26;90.32
84639;BME280;74869;51.924;5.712;2024-02-21T06:02:16;101843.84;;;8.06;90.04
84639;BME280;74869;51.924;5.712;2024-02-21T06:04:42;101857.91;;;8.14;90.07
84639;BME280;74869;51.924;5.712;2024-02-21T06:07:08;101871.00;;;8.27;89.71
84639;BME280;74869;51.924;5.712;2024-02-21T06:09:33;101884.28;;;8.22;89.56
84639;BME280;74869;51.924;5.712;2024-02-21T06:11:59;101816.59;;;7.93;90.08
84639;BME280;74869;51.924;5.712;2024-02-21T06:14:24;101857.78;;;8.20;90.11
84639;BME280;74869;51.924;5.712;2024-02-21T06:16:49;101869.78;;;8.18;89.57
84639;BME280;74869;51.924;5.712;2024-02-21T06:19:15;101871.00;;;8.27;89.59
84639;BME280;74869;51.924;5.712;2024-02-21T06:21:40;101876.03;;;8.23;89.61
84639;BME280;74869;51.924;5.712;2024-02-21T06:24:06;101846.66;;;8.12;89.24
84639;BME280;74869;51.924;5.712;2024-02-21T06:26:31;101853.31;;;8.26;89.44
84639;BME280;74869;51.924;5.712;2024-02-21T06:28:57;101862.88;;;8.22;89.86
84639;BME280;74869;51.924;5.712;2024-02-21T06:31:22;101858.03;;;8.19;89.27
84639;BME280;74869;51.924;5.712;2024-02-21T06:33:47;101874.50;;;8.27;90.24
84639;BME280;74869;51.924;5.712;2024-02-21T06:36:13;101849.66;;;8.15;88.88
84639;BME280;74869;51.924;5.712;2024-02-21T06:38:38;101861.84;;;8.23;89.75
84639;BME280;74869;51.924;5.712;2024-02-21T06:41:04;101861.25;;;8.21;89.45
84639;BME280;74869;51.924;5.712;2024-02-21T06:43:29;101869.38;;;8.26;89.53
84639;BME280;74869;51.924;5.712;2024-02-21T06:45:55;101847.47;;;8.12;89.62
84639;BME280;74869;51.924;5.712;2024-02-21T06:48:22;101856.41;;;8.18;89.05
84639;BME280;74869;51.924;5.712;2024-02-21T06:50:47;101869.56;;;8.19;89.93
84639;BME280;74869;51.924;5.712;2024-02-21T06:53:13;101862.44;;;8.25;89.52
84639;BME280;74869;51.924;5.712;2024-02-21T06:55:38;101869.06;;;8.22;89.72
84639;BME280;74869;51.924;5.712;2024-02-21T06:58:04;101874.63;;;8.21;88.96
84639;BME280;74869;51.924;5.712;2024-02-21T07:00:29;101870.34;;;8.20;89.27
84639;BME280;74869;51.924;5.712;2024-02-21T07:02:55;101865.66;;;8.27;89.32
84639;BME280;74869;51.924;5.712;2024-02-21T07:05:20;101828.50;;;8.14;89.38
84639;BME280;74869;51.924;5.712;2024-02-21T07:07:46;101862.44;;;8.25;89.33
84639;BME280;74869;51.924;5.712;2024-02-21T07:10:11;101819.69;;;8.01;89.38
84639;BME280;74869;51.924;5.712;2024-02-21T07:12:37;101836.63;;;8.19;89.02
84639;BME280;74869;51.924;5.712;2024-02-21T07:15:08;101857.63;;;8.27;89.21
84639;BME280;74869;51.924;5.712;2024-02-21T07:17:34;101850.41;;;8.27;89.40
84639;BME280;74869;51.924;5.712;2024-02-21T07:19:59;101852.88;;;8.29;89.44
84639;BME280;74869;51.924;5.712;2024-02-21T07:22:25;101838.91;;;8.27;88.93
84639;BME280;74869;51.924;5.712;2024-02-21T07:24:50;101845.44;;;8.31;88.78
84639;BME280;74869;51.924;5.712;2024-02-21T07:27:16;101821.22;;;8.26;89.16
84639;BME280;74869;51.924;5.712;2024-02-21T07:29:41;101837.97;;;8.33;89.18
84639;BME280;74869;51.924;5.712;2024-02-21T07:32:07;101818.09;;;8.29;88.50
84639;BME280;74869;51.924;5.712;2024-02-21T07:34:32;101826.47;;;8.32;89.17
84639;BME280;74869;51.924;5.712;2024-02-21T07:36:57;101821.56;;;8.29;89.05
84639;BME280;74869;51.924;5.712;2024-02-21T07:39:23;101808.44;;;8.28;88.71
84639;BME280;74869;51.924;5.712;2024-02-21T07:41:48;101806.69;;;8.33;88.87
84639;BME280;74869;51.924;5.712;2024-02-21T07:44:15;101814.97;;;8.32;88.66
84639;BME280;74869;51.924;5.712;2024-02-21T07:46:41;101809.78;;;8.42;88.45
84639;BME280;74869;51.924;5.712;2024-02-21T07:49:06;101825.34;;;8.45;88.93
84639;BME280;74869;51.924;5.712;2024-02-21T07:51:31;101795.81;;;8.40;88.89
84639;BME280;74869;51.924;5.712;2024-02-21T07:53:57;101774.91;;;8.37;88.46
84639;BME280;74869;51.924;5.712;2024-02-21T07:56:22;101793.88;;;8.52;88.16
84639;BME280;74869;51.924;5.712;2024-02-21T07:58:48;101803.09;;;8.56;88.50
84639;BME280;74869;51.924;5.712;2024-02-21T08:01:18;101776.25;;;8.51;87.91
84639;BME280;74869;51.924;5.712;2024-02-21T08:03:46;101768.59;;;8.60;87.63
84639;BME280;74869;51.924;5.712;2024-02-21T08:06:12;101772.66;;;8.62;87.84
84639;BME280;74869;51.924;5.712;2024-02-21T08:08:38;101762.50;;;8.64;88.03
84639;BME280;74869;51.924;5.712;2024-02-21T08:11:04;101753.84;;;8.57;88.07
84639;BME280;74869;51.924;5.712;2024-02-21T08:13:29;101770.06;;;8.67;87.29
84639;BME280;74869;51.924;5.712;2024-02-21T08:15:54;101754.97;;;8.61;87.49
84639;BME280;74869;51.924;5.712;2024-02-21T08:18:20;101743.75;;;8.64;87.44
84639;BME280;74869;51.924;5.712;2024-02-21T08:20:45;101777.25;;;8.83;87.38
84639;BME280;74869;51.924;5.712;2024-02-21T08:23:11;101759.09;;;8.85;87.64
84639;BME280;74869;51.924;5.712;2024-02-21T08:25:37;101746.84;;;8.90;86.86
84639;BME280;74869;51.924;5.712;2024-02-21T08:28:02;101743.59;;;8.88;86.62
84639;BME280;74869;51.924;5.712;2024-02-21T08:30:28;101728.44;;;8.76;86.58
84639;BME280;74869;51.924;5.712;2024-02-21T08:32:53;101705.22;;;8.65;86.66
84639;BME280;74869;51.924;5.712;2024-02-21T08:35:19;101741.00;;;8.93;86.17
84639;BME280;74869;51.924;5.712;2024-02-21T08:37:47;101753.97;;;9.01;87.16
84639;BME280;74869;51.924;5.712;2024-02-21T08:40:13;101744.25;;;8.95;87.00
84639;BME280;74869;51.924;5.712;2024-02-21T08:42:42;101708.22;;;8.85;86.36
84639;BME280;74869;51.924;5.712;2024-02-21T08:45:09;101723.34;;;8.97;85.96
84639;BME280;74869;51.924;5.712;2024-02-21T08:47:34;101736.56;;;9.03;86.26
84639;BME280;74869;51.924;5.712;2024-02-21T08:50:04;101739.03;;;9.05;86.48
84639;BME280;74869;51.924;5.712;2024-02-21T08:52:29;101718.56;;;8.99;86.30
84639;BME280;74869;51.924;5.712;2024-02-21T08:54:54;101715.72;;;9.05;86.34
84639;BME280;74869;51.924;5.712;2024-02-21T08:57:20;101705.41;;;9.14;86.22
84639;BME280;74869;51.924;5.712;2024-02-21T08:59:46;101683.34;;;9.07;86.19
84639;BME280;74869;51.924;5.712;2024-02-21T09:02:12;101681.75;;;9.11;86.37
84639;BME280;74869;51.924;5.712;2024-02-21T09:04:38;101687.69;;;9.13;85.85
84639;BME280;74869;51.924;5.712;2024-02-21T09:07:03;101684.50;;;9.16;86.10
84639;BME280;74869;51.924;5.712;2024-02-21T09:09:28;101691.00;;;9.20;85.56
84639;BME280;74869;51.924;5.712;2024-02-21T09:11:54;101635.91;;;8.85;86.00
84639;BME280;74869;51.924;5.712;2024-02-21T09:14:19;101648.88;;;8.94;85.47
84639;BME280;74869;51.924;5.712;2024-02-21T09:16:45;101696.41;;;9.25;85.24
84639;BME280;74869;51.924;5.712;2024-02-21T09:19:10;101686.31;;;9.32;85.20
84639;BME280;74869;51.924;5.712;2024-02-21T09:21:39;101669.63;;;9.25;85.66
84639;BME280;74869;51.924;5.712;2024-02-21T09:24:05;101630.44;;;8.97;84.95
84639;BME280;74869;51.924;5.712;2024-02-21T09:26:31;101686.94;;;9.39;85.03
84639;BME280;74869;51.924;5.712;2024-02-21T09:28:56;101678.34;;;9.37;84.77
84639;BME280;74869;51.924;5.712;2024-02-21T09:31:21;101627.66;;;9.09;84.80
84639;BME280;74869;51.924;5.712;2024-02-21T09:33:47;101661.25;;;9.43;84.93
84639;BME280;74869;51.924;5.712;2024-02-21T09:36:12;101654.88;;;9.49;85.35
84639;BME280;74869;51.924;5.712;2024-02-21T09:38:39;101665.06;;;9.47;84.49
84639;BME280;74869;51.924;5.712;2024-02-21T09:41:26;101663.09;;;9.64;83.93
84639;BME280;74869;51.924;5.712;2024-02-21T09:43:55;101642.13;;;9.61;83.94
84639;BME280;74869;51.924;5.712;2024-02-21T09:46:24;101655.47;;;9.78;84.02
84639;BME280;74869;51.924;5.712;2024-02-21T09:49:33;101650.94;;;9.84;84.82
84639;BME280;74869;51.924;5.712;2024-02-21T09:51:39;101638.06;;;9.86;83.49
84639;BME280;74869;51.924;5.712;2024-02-21T09:54:07;101637.00;;;9.87;83.81
84639;BME280;74869;51.924;5.712;2024-02-21T09:56:32;101638.63;;;9.88;83.43
84639;BME280;74869;51.924;5.712;2024-02-21T09:58:58;101612.56;;;9.78;83.51
84639;BME280;74869;51.924;5.712;2024-02-21T10:01:23;101626.59;;;9.90;82.83
84639;BME280;74869;51.924;5.712;2024-02-21T10:03:49;101629.56;;;9.94;83.73
84639;BME280;74869;51.924;5.712;2024-02-21T10:06:15;101618.34;;;9.97;83.33
84639;BME280;74869;51.924;5.712;2024-02-21T10:08:40;101593.56;;;9.85;82.95
84639;BME280;74869;51.924;5.712;2024-02-21T10:11:05;101564.31;;;9.83;83.26
84639;BME280;74869;51.924;5.712;2024-02-21T10:13:31;101592.59;;;10.01;83.04
84639;BME280;74869;51.924;5.712;2024-02-21T10:16:04;101574.59;;;9.96;82.99
84639;BME280;74869;51.924;5.712;2024-02-21T10:18:30;101580.22;;;9.95;83.33
84639;BME280;74869;51.924;5.712;2024-02-21T10:21:08;101586.06;;;9.87;83.13
84639;BME280;74869;51.924;5.712;2024-02-21T10:23:50;101560.19;;;9.71;83.20
84639;BME280;74869;51.924;5.712;2024-02-21T10:26:17;101569.78;;;9.66;83.66
84639;BME280;74869;51.924;5.712;2024-02-21T10:28:42;101555.25;;;9.57;84.13
84639;BME280;74869;51.924;5.712;2024-02-21T10:31:10;101541.81;;;9.52;84.37
84639;BME280;74869;51.924;5.712;2024-02-21T10:33:36;101551.41;;;9.48;84.45
84639;BME280;74869;51.924;5.712;2024-02-21T10:36:10;101544.66;;;9.41;84.82
84639;BME280;74869;51.924;5.712;2024-02-21T10:38:38;101535.84;;;9.45;85.31
84639;BME280;74869;51.924;5.712;2024-02-21T10:41:05;101531.50;;;9.39;85.19
84639;BME280;74869;51.924;5.712;2024-02-21T10:43:37;101544.44;;;9.47;85.67
84639;BME280;74869;51.924;5.712;2024-02-21T10:46:05;101541.19;;;9.45;85.73
84639;BME280;74869;51.924;5.712;2024-02-21T10:48:38;101526.22;;;9.49;85.53
84639;BME280;74869;51.924;5.712;2024-02-21T10:56:32;101499.63;;;9.80;85.93
84639;BME280;74869;51.924;5.712;2024-02-21T10:59:05;101481.41;;;9.82;85.37
84639;BME280;74869;51.924;5.712;2024-02-21T11:01:31;101469.59;;;9.78;85.31
84639;BME280;74869;51.924;5.712;2024-02-21T11:03:59;101445.97;;;9.75;85.71
84639;BME280;74869;51.924;5.712;2024-02-21T11:06:27;101407.59;;;9.69;84.90
84639;BME280;74869;51.924;5.712;2024-02-21T11:09:01;101436.44;;;9.94;84.75
84639;BME280;74869;51.924;5.712;2024-02-21T11:11:28;101410.66;;;9.88;84.77
84639;BME280;74869;51.924;5.712;2024-02-21T11:14:04;101397.72;;;9.80;84.68
84639;BME280;74869;51.924;5.712;2024-02-21T11:16:38;101428.41;;;9.99;85.37
84639;BME280;74869;51.924;5.712;2024-02-21T11:19:25;101422.75;;;9.95;84.53
84639;BME280;74869;51.924;5.712;2024-02-21T11:21:52;101439.66;;;9.96;84.50
84639;BME280;74869;51.924;5.712;2024-02-21T11:24:44;101437.94;;;9.80;83.51
84639;BME280;74869;51.924;5.712;2024-02-21T11:27:19;101445.97;;;9.75;84.53
84639;BME280;74869;51.924;5.712;2024-02-21T11:29:57;101466.38;;;9.81;84.32
84639;BME280;74869;51.924;5.712;2024-02-21T11:32:25;101438.97;;;9.74;84.16
84639;BME280;74869;51.924;5.712;2024-02-21T11:35:00;101434.19;;;9.81;84.50
84639;BME280;74869;51.924;5.712;2024-02-21T11:37:32;101425.63;;;9.79;84.19
84639;BME280;74869;51.924;5.712;2024-02-21T11:40:13;101399.22;;;9.60;83.91
84639;BME280;74869;51.924;5.712;2024-02-21T11:42:39;101413.75;;;9.70;84.31
84639;BME280;74869;51.924;5.712;2024-02-21T11:45:04;101345.38;;;9.20;84.12
84639;BME280;74869;51.924;5.712;2024-02-21T11:47:30;101413.25;;;9.73;84.39
84639;BME280;74869;51.924;5.712;2024-02-21T11:49:55;101379.84;;;9.48;84.71
84639;BME280;74869;51.924;5.712;2024-02-21T11:52:22;101346.47;;;9.24;83.69
84639;BME280;74869;51.924;5.712;2024-02-21T11:54:50;101391.16;;;9.55;83.69
84639;BME280;74869;51.924;5.712;2024-02-21T11:57:17;101393.34;;;9.63;83.71
84639;BME280;74869;51.924;5.712;2024-02-21T11:59:44;101383.72;;;9.68;83.50
84639;BME280;74869;51.924;5.712;2024-02-21T12:02:10;101375.72;;;9.73;84.14
84639;BME280;74869;51.924;5.712;2024-02-21T12:04:36;101351.31;;;9.74;83.39
84639;BME280;74869;51.924;5.712;2024-02-21T12:07:01;101338.22;;;9.83;83.87
84639;BME280;74869;51.924;5.712;2024-02-21T12:09:28;101342.28;;;9.95;82.96
84639;BME280;74869;51.924;5.712;2024-02-21T12:12:05;101330.25;;;10.08;82.08
84639;BME280;74869;51.924;5.712;2024-02-21T12:14:33;101295.13;;;10.10;82.41
84639;BME280;74869;51.924;5.712;2024-02-21T12:17:00;101301.63;;;10.34;82.14
84639;BME280;74869;51.924;5.712;2024-02-21T12:19:29;101244.47;;;10.28;82.13
84639;BME280;74869;51.924;5.712;2024-02-21T12:21:54;101271.84;;;10.61;80.87
84639;BME280;74869;51.924;5.712;2024-02-21T12:24:27;101272.91;;;10.60;81.02
84639;BME280;74869;51.924;5.712;2024-02-21T12:26:54;101259.50;;;10.75;80.67
84639;BME280;74869;51.924;5.712;2024-02-21T12:29:21;101243.09;;;10.81;80.07
84639;BME280;74869;51.924;5.712;2024-02-21T12:31:47;101249.28;;;10.87;80.52
84639;BME280;74869;51.924;5.712;2024-02-21T12:34:14;101218.38;;;10.79;80.34
84639;BME280;74869;51.924;5.712;2024-02-21T12:36:46;101226.47;;;10.74;79.82
84639;BME280;74869;51.924;5.712;2024-02-21T12:39:14;101234.78;;;10.88;79.38
84639;BME280;74869;51.924;5.712;2024-02-21T12:41:42;101194.50;;;10.68;79.52
84639;BME280;74869;51.924;5.712;2024-02-21T12:44:12;101174.63;;;10.64;79.34
84639;BME280;74869;51.924;5.712;2024-02-21T12:46:38;101215.41;;;10.91;78.89
84639;BME280;74869;51.924;5.712;2024-02-21T12:49:04;101210.84;;;10.92;79.22
84639;BME280;74869;51.924;5.712;2024-02-21T12:51:34;101184.25;;;10.85;79.22
84639;BME280;74869;51.924;5.712;2024-02-21T12:54:00;101131.13;;;10.57;78.80
84639;BME280;74869;51.924;5.712;2024-02-21T12:56:28;101161.69;;;10.86;78.81
84639;BME280;74869;51.924;5.712;2024-02-21T12:58:58;101156.88;;;10.78;79.23
84639;BME280;74869;51.924;5.712;2024-02-21T13:01:24;101157.41;;;10.85;79.23